createdAt,value
2023-01-28T00:00:51.164Z,102028.88
2023-01-28T00:03:17.923Z,102043.69
2023-01-28T00:05:44.455Z,102059.00
2023-01-28T00:08:11.591Z,102045.16
2023-01-28T00:10:40.973Z,102038.59
2023-01-28T00:13:07.934Z,102053.50
2023-01-28T00:15:34.783Z,102031.91
2023-01-28T00:18:01.416Z,102054.78
2023-01-28T00:20:27.952Z,102061.56
2023-01-28T00:22:54.460Z,102056.69
2023-01-28T00:25:21.068Z,102032.06
2023-01-28T00:27:47.582Z,102035.31
2023-01-28T00:30:14.411Z,102030.66
2023-01-28T00:32:42.487Z,102053.34
2023-01-28T00:35:09.975Z,102052.41
2023-01-28T00:37:37.800Z,102037.03
2023-01-28T00:40:04.614Z,102050.63
2023-01-28T00:42:31.377Z,102055.94
2023-01-28T00:44:57.874Z,102015.13
2023-01-28T00:47:24.423Z,102062.22
2023-01-28T00:49:50.935Z,102051.50
2023-01-28T00:52:17.547Z,102055.41
2023-01-28T00:54:44.277Z,102073.09
2023-01-28T00:57:10.731Z,102067.97
2023-01-28T00:59:37.250Z,102065.63
2023-01-28T01:02:12.601Z,102048.50
2023-01-28T01:04:40.462Z,102076.88
2023-01-28T01:07:07.148Z,102073.16
2023-01-28T01:09:33.693Z,102051.84
2023-01-28T01:12:00.744Z,102065.38
2023-01-28T01:14:27.270Z,102062.94
2023-01-28T01:16:53.923Z,102044.88
2023-01-28T01:19:20.501Z,102048.47
2023-01-28T01:21:50.530Z,102038.94
2023-01-28T01:24:17.626Z,102065.03
2023-01-28T01:26:44.222Z,102071.88
2023-01-28T01:29:10.865Z,102061.31
2023-01-28T01:31:37.435Z,102072.06
2023-01-28T01:34:03.995Z,102075.56
2023-01-28T01:36:31.253Z,102054.06
2023-01-28T01:38:58.138Z,102065.53
2023-01-28T01:41:30.462Z,102052.16
2023-01-28T01:44:02.365Z,102073.13
2023-01-28T01:46:34.676Z,102074.97
2023-01-28T01:49:08.925Z,102080.69
2023-01-28T01:51:36.191Z,102063.41
2023-01-28T01:54:02.890Z,102076.53
2023-01-28T01:56:34.428Z,102082.31
2023-01-28T01:59:01.538Z,102060.78
2023-01-28T02:01:30.769Z,102072.94
2023-01-28T02:04:03.436Z,102080.81
2023-01-28T02:06:30.908Z,102067.41
2023-01-28T02:08:57.845Z,102052.88
2023-01-28T02:11:27.291Z,102086.13
2023-01-28T02:13:57.096Z,102070.06
2023-01-28T02:16:24.782Z,102085.16
2023-01-28T02:18:51.408Z,102096.53
2023-01-28T02:21:29.806Z,102097.91
2023-01-28T02:24:31.692Z,102098.59
2023-01-28T02:27:10.333Z,102063.19
2023-01-28T02:29:42.986Z,102102.03
2023-01-28T02:32:35.578Z,102098.84
2023-01-28T02:35:05.995Z,102100.88
2023-01-28T02:37:44.361Z,102082.66
2023-01-28T02:40:20.006Z,102018.97
2023-01-28T02:42:46.735Z,102094.88
2023-01-28T02:45:46.499Z,102099.88
2023-01-28T02:48:13.604Z,102105.53
2023-01-28T02:51:09.913Z,102077.97
2023-01-28T02:53:51.196Z,102073.59
2023-01-28T02:56:59.266Z,102098.44
2023-01-28T02:59:44.208Z,102100.72
2023-01-28T03:02:21.786Z,102063.88
2023-01-28T03:05:03.792Z,102092.75
2023-01-28T03:07:32.519Z,102095.56
2023-01-28T03:10:04.197Z,102091.16
2023-01-28T03:12:50.858Z,102099.06
2023-01-28T03:15:38.306Z,102092.88
2023-01-28T03:18:28.896Z,102092.81
2023-01-28T03:21:22.047Z,102098.56
2023-01-28T03:24:13.628Z,102082.91
2023-01-28T03:27:14.033Z,102089.13
2023-01-28T03:30:01.022Z,102084.41
2023-01-28T03:32:46.224Z,102058.47
2023-01-28T03:35:34.040Z,102083.94
2023-01-28T03:38:01.972Z,102076.34
2023-01-28T03:40:28.504Z,102084.31
2023-01-28T03:42:56.788Z,102055.66
2023-01-28T03:45:23.241Z,102091.00
2023-01-28T03:47:49.707Z,102093.75
2023-01-28T03:50:16.444Z,102084.16
2023-01-28T03:52:42.970Z,102095.38
2023-01-28T03:55:14.680Z,102101.75
2023-01-28T03:57:41.583Z,102099.47
2023-01-28T04:00:10.523Z,102097.81
2023-01-28T04:02:40.124Z,102085.75
2023-01-28T04:05:13.901Z,102104.44
2023-01-28T04:07:40.601Z,102058.81
2023-01-28T04:10:08.735Z,102070.63
2023-01-28T04:12:37.820Z,102109.81
2023-01-28T04:15:15.717Z,102080.53
2023-01-28T04:17:46.840Z,102078.16
2023-01-28T04:20:14.059Z,102106.91
2023-01-28T04:22:41.141Z,102096.94
2023-01-28T04:25:08.325Z,102111.44
2023-01-28T04:27:34.776Z,102068.78
2023-01-28T04:30:01.260Z,102118.16
2023-01-28T04:32:27.753Z,102087.06
2023-01-28T04:34:54.237Z,102115.53
2023-01-28T04:37:21.101Z,102117.03
2023-01-28T04:39:47.591Z,102115.78
2023-01-28T04:42:14.372Z,102109.72
2023-01-28T04:44:40.927Z,102075.25
2023-01-28T04:47:07.436Z,102132.63
2023-01-28T04:49:34.001Z,102139.97
2023-01-28T04:52:00.465Z,102136.47
2023-01-28T04:54:27.367Z,102121.16
2023-01-28T04:56:53.830Z,102132.66
2023-01-28T04:59:20.292Z,102142.56
2023-01-28T05:01:46.804Z,102075.16
2023-01-28T05:04:13.309Z,102127.38
2023-01-28T05:06:40.079Z,102130.78
2023-01-28T05:09:06.636Z,102138.06
2023-01-28T05:11:33.178Z,102126.19
2023-01-28T05:13:59.707Z,102119.91
2023-01-28T05:16:26.218Z,102114.16
2023-01-28T05:18:52.693Z,102085.25
2023-01-28T05:21:19.249Z,102140.28
2023-01-28T05:23:45.762Z,102095.84
2023-01-28T05:26:12.807Z,102131.69
2023-01-28T05:28:39.334Z,102132.19
2023-01-28T05:31:06.898Z,102129.91
2023-01-28T05:33:33.595Z,102132.25
2023-01-28T05:36:00.094Z,102130.34
2023-01-28T05:38:26.946Z,102132.94
2023-01-28T05:40:53.472Z,102136.47
2023-01-28T05:43:19.992Z,102040.97
2023-01-28T05:45:47.791Z,102114.50
2023-01-28T05:48:14.655Z,102132.72
2023-01-28T05:50:41.208Z,102151.25
2023-01-28T05:53:08.019Z,102151.66
2023-01-28T05:55:34.771Z,102151.44
2023-01-28T05:58:01.299Z,102158.06
2023-01-28T06:00:27.857Z,102121.00
2023-01-28T06:02:54.628Z,102130.81
2023-01-28T06:05:21.328Z,102118.69
2023-01-28T06:07:48.379Z,102144.59
2023-01-28T06:10:17.998Z,102147.94
2023-01-28T06:12:44.706Z,102155.59
2023-01-28T06:15:11.571Z,102148.00
2023-01-28T06:17:38.377Z,102154.44
2023-01-28T06:20:05.447Z,102149.28
2023-01-28T06:22:31.967Z,102156.22
2023-01-28T06:24:58.429Z,102120.56
2023-01-28T06:27:24.919Z,102153.03
2023-01-28T06:29:51.429Z,102158.88
2023-01-28T06:32:17.920Z,102157.81
2023-01-28T06:34:44.410Z,102159.00
2023-01-28T06:37:14.913Z,102116.84
2023-01-28T06:39:41.448Z,102154.75
2023-01-28T06:42:08.040Z,102141.09
2023-01-28T06:44:34.525Z,102153.94
2023-01-28T06:47:01.076Z,102126.34
2023-01-28T06:49:27.604Z,102165.03
2023-01-28T06:51:54.134Z,102151.88
2023-01-28T06:54:21.161Z,102109.69
2023-01-28T06:56:47.862Z,102154.28
2023-01-28T06:59:14.363Z,102155.03
2023-01-28T07:01:40.820Z,102164.09
2023-01-28T07:04:07.395Z,102159.78
2023-01-28T07:06:33.893Z,102141.00
2023-01-28T07:09:00.675Z,102138.22
2023-01-28T07:11:27.155Z,102143.84
2023-01-28T07:13:53.583Z,102127.75
2023-01-28T07:16:20.095Z,102111.91
2023-01-28T07:18:46.600Z,102143.59
2023-01-28T07:21:13.102Z,102131.53
2023-01-28T07:23:39.988Z,102160.84
2023-01-28T07:26:06.622Z,102153.59
2023-01-28T07:28:33.144Z,102157.56
2023-01-28T07:30:59.960Z,102127.00
2023-01-28T07:33:26.527Z,102166.75
2023-01-28T07:35:53.075Z,102126.47
2023-01-28T07:38:19.596Z,102133.19
2023-01-28T07:40:46.455Z,102124.16
2023-01-28T07:43:13.021Z,102147.00
2023-01-28T07:45:39.645Z,102123.84
2023-01-28T07:48:08.190Z,102164.81
2023-01-28T07:50:36.651Z,102160.00
2023-01-28T07:53:05.165Z,102130.53
2023-01-28T07:55:32.050Z,102151.97
2023-01-28T07:57:59.894Z,102164.59
2023-01-28T08:00:29.107Z,102167.66
2023-01-28T08:03:04.309Z,102166.22
2023-01-28T08:05:39.621Z,102159.16
2023-01-28T08:08:06.131Z,102162.13
2023-01-28T08:10:32.667Z,102159.44
2023-01-28T08:12:59.423Z,102158.94
2023-01-28T08:15:26.238Z,102181.94
2023-01-28T08:17:57.822Z,102180.13
2023-01-28T08:20:25.890Z,102199.13
2023-01-28T08:22:52.414Z,102199.66
2023-01-28T08:25:19.191Z,102204.88
2023-01-28T08:27:45.894Z,102173.50
2023-01-28T08:30:12.960Z,102210.06
2023-01-28T08:32:39.918Z,102194.28
2023-01-28T08:35:07.806Z,102180.13
2023-01-28T08:37:34.362Z,102221.75
2023-01-28T08:40:01.072Z,102216.56
2023-01-28T08:42:27.529Z,102202.13
2023-01-28T08:44:54.032Z,102242.94
2023-01-28T08:47:20.537Z,102232.13
2023-01-28T08:49:47.020Z,102226.28
2023-01-28T08:52:14.082Z,102221.50
2023-01-28T08:54:40.578Z,102243.81
2023-01-28T08:57:07.107Z,102219.28
2023-01-28T08:59:33.553Z,102262.28
2023-01-28T09:02:00.068Z,102263.97
2023-01-28T09:04:26.623Z,102271.88
2023-01-28T09:06:54.392Z,102286.22
2023-01-28T09:09:20.936Z,102241.47
2023-01-28T09:11:47.427Z,102237.19
2023-01-28T09:14:13.941Z,102272.97
2023-01-28T09:16:40.431Z,102278.41
2023-01-28T09:19:06.913Z,102280.88
2023-01-28T09:21:33.408Z,102250.81
2023-01-28T09:23:59.995Z,102276.91
2023-01-28T09:26:26.494Z,102268.78
2023-01-28T09:28:53.039Z,102260.41
2023-01-28T09:31:19.622Z,102256.84
2023-01-28T09:33:47.289Z,102268.56
2023-01-28T09:36:13.807Z,102282.44
2023-01-28T09:38:40.292Z,102283.91
2023-01-28T09:41:23.063Z,102296.47
2023-01-28T09:44:25.588Z,102310.53
2023-01-28T09:46:52.192Z,102305.03
2023-01-28T09:49:34.969Z,102291.53
2023-01-28T09:52:01.495Z,102289.47
2023-01-28T09:54:43.933Z,102269.19
2023-01-28T09:57:23.150Z,102314.97
2023-01-28T09:59:49.931Z,102318.50
2023-01-28T10:02:31.791Z,102314.91
2023-01-28T10:05:07.109Z,102311.53
2023-01-28T10:07:48.509Z,102295.53
2023-01-28T10:10:18.540Z,102310.78
2023-01-28T10:13:23.146Z,102295.38
2023-01-28T10:16:05.858Z,102292.16
2023-01-28T10:18:59.178Z,102283.41
2023-01-28T10:21:36.500Z,102244.56
2023-01-28T10:24:18.714Z,102298.22
2023-01-28T10:26:45.956Z,102293.28
2023-01-28T10:29:19.429Z,102282.72
2023-01-28T10:32:15.988Z,102280.50
2023-01-28T10:34:42.511Z,102274.28
2023-01-28T10:37:13.593Z,102279.22
2023-01-28T10:39:40.290Z,102258.41
2023-01-28T10:42:25.097Z,102286.81
2023-01-28T10:44:52.501Z,102273.28
2023-01-28T10:47:31.022Z,102274.34
2023-01-28T10:50:01.409Z,102271.94
2023-01-28T10:52:28.011Z,102288.88
2023-01-28T10:55:05.795Z,102271.75
2023-01-28T10:57:41.479Z,102272.97
2023-01-28T11:00:37.427Z,102288.84
2023-01-28T11:03:04.424Z,102304.94
2023-01-28T11:05:31.582Z,102288.38
2023-01-28T11:08:10.231Z,102280.97
2023-01-28T11:10:37.904Z,102312.72
2023-01-28T11:13:06.158Z,102297.19
2023-01-28T11:15:33.273Z,102312.97
2023-01-28T11:18:08.407Z,102310.94
2023-01-28T11:20:38.873Z,102310.25
2023-01-28T11:23:05.537Z,102288.63
2023-01-28T11:25:36.614Z,102310.38
2023-01-28T11:28:14.797Z,102315.53
2023-01-28T11:30:41.853Z,102326.03
2023-01-28T11:33:11.166Z,102321.25
2023-01-28T11:35:37.647Z,102317.38
2023-01-28T11:38:17.481Z,102292.31
2023-01-28T11:40:54.639Z,102302.00
2023-01-28T11:43:23.208Z,102303.81
2023-01-28T11:45:59.175Z,102296.88
2023-01-28T11:48:50.759Z,102297.91
2023-01-28T11:51:23.318Z,102292.06
2023-01-28T11:54:04.122Z,102281.75
2023-01-28T11:56:30.742Z,102282.31
2023-01-28T11:59:23.175Z,102293.50
2023-01-28T12:02:18.093Z,102288.59
2023-01-28T12:04:54.834Z,102287.69
2023-01-28T12:07:42.593Z,102277.16
2023-01-28T12:10:36.737Z,102278.16
2023-01-28T12:13:33.845Z,102247.88
2023-01-28T12:16:27.808Z,102265.81
2023-01-28T12:19:05.604Z,102254.50
2023-01-28T12:21:38.169Z,102262.94
2023-01-28T12:24:19.973Z,102258.38
2023-01-28T12:26:56.999Z,102239.19
2023-01-28T12:29:33.366Z,102219.28
2023-01-28T12:32:18.417Z,102232.97
2023-01-28T12:35:03.068Z,102223.03
2023-01-28T12:37:50.702Z,102230.72
2023-01-28T12:40:43.692Z,102236.69
2023-01-28T12:43:27.344Z,102230.72
2023-01-28T12:45:57.974Z,102202.41
2023-01-28T12:48:32.296Z,102175.50
2023-01-28T12:51:04.015Z,102179.69
2023-01-28T12:53:42.305Z,102160.09
2023-01-28T12:56:15.757Z,102132.28
2023-01-28T12:58:45.138Z,102154.59
2023-01-28T13:01:15.559Z,102142.28
2023-01-28T13:03:56.408Z,102144.81
2023-01-28T13:06:40.522Z,102131.50
2023-01-28T13:09:25.703Z,102123.09
2023-01-28T13:11:54.397Z,102147.31
2023-01-28T13:14:25.121Z,102155.75
2023-01-28T13:16:51.674Z,102166.97
2023-01-28T13:19:18.129Z,102165.25
2023-01-28T13:21:49.399Z,102122.47
2023-01-28T13:24:16.295Z,102165.06
2023-01-28T13:26:43.640Z,102157.91
2023-01-28T13:29:25.974Z,102161.66
2023-01-28T13:31:54.729Z,102141.25
2023-01-28T13:34:36.120Z,102167.66
2023-01-28T13:37:17.887Z,102172.56
2023-01-28T13:39:50.640Z,102179.41
2023-01-28T13:42:28.777Z,102184.84
2023-01-28T13:44:56.311Z,102181.88
2023-01-28T13:47:31.303Z,102205.75
2023-01-28T13:50:07.401Z,102200.69
2023-01-28T13:52:44.643Z,102198.59
2023-01-28T13:55:11.153Z,102192.50
2023-01-28T13:58:05.505Z,102185.06
2023-01-28T14:00:37.920Z,102205.09
2023-01-28T14:03:38.638Z,102216.84
2023-01-28T14:06:32.331Z,102214.97
2023-01-28T14:09:07.971Z,102224.81
2023-01-28T14:11:53.469Z,102198.56
2023-01-28T14:14:49.427Z,102227.41
2023-01-28T14:17:44.681Z,102219.59
2023-01-28T14:20:20.756Z,102219.78
2023-01-28T14:22:48.757Z,102210.03
2023-01-28T14:25:20.377Z,102198.97
2023-01-28T14:27:51.096Z,102169.84
2023-01-28T14:30:32.268Z,102185.00
2023-01-28T14:32:58.852Z,102181.84
2023-01-28T14:35:30.102Z,102147.91
2023-01-28T14:37:57.950Z,102154.97
2023-01-28T14:40:25.512Z,102143.16
2023-01-28T14:42:56.274Z,102144.59
2023-01-28T14:45:23.099Z,102152.66
2023-01-28T14:48:01.703Z,102149.16
2023-01-28T14:50:35.465Z,102146.22
2023-01-28T14:53:32.853Z,102150.44
2023-01-28T14:56:08.438Z,102137.75
2023-01-28T14:58:57.645Z,102167.22
2023-01-28T15:01:26.591Z,102161.75
2023-01-28T15:03:53.431Z,102174.25
2023-01-28T15:06:25.835Z,102170.06
2023-01-28T15:08:52.929Z,102179.94
2023-01-28T15:11:23.886Z,102162.25
2023-01-28T15:13:56.343Z,102188.78
2023-01-28T15:16:28.533Z,102183.50
2023-01-28T15:18:56.083Z,102185.69
2023-01-28T15:21:27.466Z,102190.84
2023-01-28T15:23:57.563Z,102192.75
2023-01-28T15:26:29.373Z,102195.13
2023-01-28T15:28:56.531Z,102196.94
2023-01-28T15:31:30.430Z,102202.34
2023-01-28T15:34:17.835Z,102204.47
2023-01-28T15:36:44.860Z,102193.19
2023-01-28T15:39:16.753Z,102216.88
2023-01-28T15:41:47.491Z,102224.34
2023-01-28T15:44:35.525Z,102203.41
2023-01-28T15:47:04.858Z,102207.25
2023-01-28T15:49:35.619Z,102222.19
2023-01-28T15:52:02.657Z,102211.69
2023-01-28T15:54:30.545Z,102223.41
2023-01-28T15:56:57.442Z,102222.75
2023-01-28T15:59:31.245Z,102210.81
2023-01-28T16:02:17.909Z,102185.75
2023-01-28T16:04:44.527Z,102211.69
2023-01-28T16:07:11.158Z,102200.56
2023-01-28T16:09:37.756Z,102216.88
2023-01-28T16:12:12.293Z,102211.72
2023-01-28T16:14:49.957Z,102217.72
2023-01-28T16:17:25.376Z,102226.06
2023-01-28T16:19:59.154Z,102260.59
2023-01-28T16:22:39.604Z,102268.00
2023-01-28T16:25:21.267Z,102279.75
2023-01-28T16:27:48.051Z,102277.03
2023-01-28T16:30:15.640Z,102281.31
2023-01-28T16:32:42.803Z,102291.00
2023-01-28T16:35:15.568Z,102300.78
2023-01-28T16:37:42.497Z,102285.97
2023-01-28T16:40:11.241Z,102284.53
2023-01-28T16:42:37.803Z,102174.25
2023-01-28T16:45:05.143Z,102259.59
2023-01-28T16:47:31.787Z,102273.41
2023-01-28T16:49:58.353Z,102285.00
2023-01-28T16:52:24.869Z,102239.38
2023-01-28T16:54:51.363Z,102265.34
2023-01-28T16:57:20.725Z,102267.00
2023-01-28T16:59:47.216Z,102261.50
2023-01-28T17:02:15.514Z,102253.47
2023-01-28T17:04:42.295Z,102224.72
2023-01-28T17:07:09.363Z,102262.72
2023-01-28T17:09:35.912Z,102247.09
2023-01-28T17:12:03.178Z,102220.38
2023-01-28T17:14:29.758Z,102209.44
2023-01-28T17:16:56.346Z,102201.50
2023-01-28T17:19:22.853Z,102223.88
2023-01-28T17:21:49.404Z,102253.97
2023-01-28T17:24:16.108Z,102236.72
2023-01-28T17:26:42.600Z,102232.28
2023-01-28T17:29:09.102Z,102240.25
2023-01-28T17:31:36.161Z,102247.03
2023-01-28T17:34:03.046Z,102225.44
2023-01-28T17:36:29.491Z,102258.31
2023-01-28T17:38:56.290Z,102242.19
2023-01-28T17:41:23.061Z,102264.00
2023-01-28T17:43:56.172Z,102297.53
2023-01-28T17:46:24.037Z,102306.22
2023-01-28T17:48:50.578Z,102290.25
2023-01-28T17:51:17.585Z,102315.94
2023-01-28T17:53:48.806Z,102293.34
2023-01-28T17:56:26.856Z,102303.66
2023-01-28T17:58:55.736Z,102304.84
2023-01-28T18:01:23.892Z,102297.91
2023-01-28T18:03:54.026Z,102255.53
2023-01-28T18:06:21.811Z,102292.75
2023-01-28T18:08:48.450Z,102270.22
2023-01-28T18:11:16.986Z,102283.78
2023-01-28T18:13:46.118Z,102291.56
2023-01-28T18:16:16.045Z,102289.84
2023-01-28T18:18:42.976Z,102299.44
2023-01-28T18:21:22.951Z,102294.63
2023-01-28T18:23:51.857Z,102297.72
2023-01-28T18:26:18.455Z,102297.63
2023-01-28T18:28:44.930Z,102260.97
2023-01-28T18:31:11.614Z,102311.16
2023-01-28T18:33:38.271Z,102299.09
2023-01-28T18:36:06.316Z,102268.00
2023-01-28T18:38:33.355Z,102313.91
2023-01-28T18:41:00.003Z,102259.97
2023-01-28T18:43:26.685Z,102300.53
2023-01-28T18:45:53.298Z,102296.44
2023-01-28T18:48:19.885Z,102261.63
2023-01-28T18:50:53.086Z,102321.28
2023-01-28T18:53:20.255Z,102293.81
2023-01-28T18:55:46.956Z,102293.03
2023-01-28T18:58:13.462Z,102310.88
2023-01-28T19:00:40.120Z,102257.00
2023-01-28T19:03:06.643Z,102327.94
2023-01-28T19:05:39.727Z,102326.91
2023-01-28T19:08:07.014Z,102319.16
2023-01-28T19:10:33.733Z,102294.63
2023-01-28T19:13:00.282Z,102323.31
2023-01-28T19:15:27.091Z,102288.84
2023-01-28T19:17:53.675Z,102327.69
2023-01-28T19:20:20.327Z,102309.69
2023-01-28T19:22:46.897Z,102320.25
2023-01-28T19:25:13.844Z,102300.41
2023-01-28T19:27:40.571Z,102332.28
2023-01-28T19:30:08.141Z,102335.78
2023-01-28T19:32:34.953Z,102340.09
2023-01-28T19:35:04.271Z,102340.91
2023-01-28T19:37:30.752Z,102344.69
2023-01-28T19:39:57.387Z,102311.41
2023-01-28T19:42:23.950Z,102323.50
2023-01-28T19:44:51.238Z,102342.28
2023-01-28T19:47:18.011Z,102343.31
2023-01-28T19:49:44.560Z,102348.19
2023-01-28T19:52:11.159Z,102303.38
2023-01-28T19:54:37.637Z,102316.97
2023-01-28T19:57:04.144Z,102305.53
2023-01-28T19:59:30.735Z,102335.13
2023-01-28T20:01:57.299Z,102340.19
2023-01-28T20:04:24.538Z,102308.03
2023-01-28T20:06:51.074Z,102352.06
2023-01-28T20:09:20.012Z,102351.88
2023-01-28T20:11:46.584Z,102311.97
2023-01-28T20:14:14.953Z,102336.84
2023-01-28T20:16:42.217Z,102337.13
2023-01-28T20:19:14.459Z,102332.72
2023-01-28T20:21:41.033Z,102335.50
2023-01-28T20:24:07.899Z,102328.34
2023-01-28T20:26:37.262Z,102322.97
2023-01-28T20:29:09.584Z,102327.25
2023-01-28T20:31:38.593Z,102330.06
2023-01-28T20:34:05.860Z,102325.41
2023-01-28T20:36:32.411Z,102295.97
2023-01-28T20:38:59.280Z,102310.56
2023-01-28T20:41:27.029Z,102315.19
2023-01-28T20:43:54.995Z,102318.25
2023-01-28T20:46:27.787Z,102314.00
2023-01-28T20:48:56.388Z,102296.84
2023-01-28T20:51:27.933Z,102287.16
2023-01-28T20:53:55.031Z,102293.34
2023-01-28T20:56:23.059Z,102279.19
2023-01-28T20:58:55.006Z,102249.00
2023-01-28T21:01:24.080Z,102275.00
2023-01-28T21:03:51.192Z,102290.00
2023-01-28T21:06:18.367Z,102288.06
2023-01-28T21:08:45.013Z,102278.31
2023-01-28T21:11:12.096Z,102284.72
2023-01-28T21:13:38.680Z,102276.00
2023-01-28T21:16:05.953Z,102266.28
2023-01-28T21:18:32.516Z,102292.09
2023-01-28T21:21:04.512Z,102291.88
2023-01-28T21:23:31.672Z,102249.28
2023-01-28T21:26:01.923Z,102286.09
2023-01-28T21:28:28.503Z,102283.16
2023-01-28T21:30:55.089Z,102289.22
2023-01-28T21:33:21.588Z,102286.53
2023-01-28T21:35:48.104Z,102293.22
2023-01-28T21:38:14.585Z,102299.34
2023-01-28T21:40:41.281Z,102298.19
2023-01-28T21:43:07.734Z,102298.72
2023-01-28T21:45:34.365Z,102289.13
2023-01-28T21:48:00.995Z,102275.00
2023-01-28T21:50:27.550Z,102293.81
2023-01-28T21:52:54.261Z,102302.16
2023-01-28T21:55:20.802Z,102293.03
2023-01-28T21:57:47.330Z,102278.41
2023-01-28T22:00:14.801Z,102297.88
2023-01-28T22:02:41.770Z,102257.16
2023-01-28T22:05:08.438Z,102296.31
2023-01-28T22:07:34.922Z,102302.22
2023-01-28T22:10:01.523Z,102305.72
2023-01-28T22:12:28.376Z,102302.81
2023-01-28T22:14:54.907Z,102304.53
2023-01-28T22:17:21.614Z,102309.69
2023-01-28T22:19:48.247Z,102283.03
2023-01-28T22:22:16.008Z,102276.78
2023-01-28T22:24:42.581Z,102292.75
2023-01-28T22:27:09.178Z,102288.38
2023-01-28T22:29:35.689Z,102261.31
2023-01-28T22:32:04.680Z,102305.41
2023-01-28T22:34:32.314Z,102312.47
2023-01-28T22:36:58.921Z,102298.34
2023-01-28T22:39:25.431Z,102307.03
2023-01-28T22:41:51.997Z,102296.81
2023-01-28T22:44:19.888Z,102309.09
2023-01-28T22:46:47.183Z,102263.81
2023-01-28T22:49:15.202Z,102297.19
2023-01-28T22:51:42.103Z,102299.75
2023-01-28T22:54:11.281Z,102306.59
2023-01-28T22:56:38.306Z,102260.53
2023-01-28T22:59:04.885Z,102296.47
2023-01-28T23:01:31.625Z,102269.38
2023-01-28T23:03:58.454Z,102293.56
2023-01-28T23:06:26.609Z,102285.81
2023-01-28T23:08:54.482Z,102285.03
2023-01-28T23:11:27.653Z,102278.38
2023-01-28T23:14:15.178Z,102279.22
2023-01-28T23:17:00.258Z,102235.00
2023-01-28T23:19:45.460Z,102282.38
2023-01-28T23:22:32.354Z,102276.66
2023-01-28T23:24:58.915Z,102281.75
2023-01-28T23:27:26.040Z,102281.34
2023-01-28T23:29:52.780Z,102282.75
2023-01-28T23:32:20.273Z,102275.66
2023-01-28T23:34:46.724Z,102285.19
2023-01-28T23:37:13.509Z,102266.09
2023-01-28T23:39:40.706Z,102282.75
2023-01-28T23:42:14.527Z,102280.03
2023-01-28T23:44:41.059Z,102272.63
2023-01-28T23:47:07.804Z,102257.97
2023-01-28T23:49:34.418Z,102251.91
2023-01-28T23:52:01.395Z,102240.41
2023-01-28T23:54:28.114Z,102271.47
2023-01-28T23:56:54.575Z,102256.66
2023-01-28T23:59:21.473Z,102264.31
